Aeroporto :
LOGIN :

Iscrizione | Disclaimer

   EN    FR    IT 

 










Sommario :    VFR   VFR Marginale   IFR   IFR Intensivo   IFR Molto Intensivo
Visibilità : 
Base nubi : 
>= 8 km
>= 3000ft
5 / 8 km
1000 / 3000 ft
1500m / 5 km
500 / 1000 ft
800 / 1500m
200 / 500 ft
< 800m
< 200 ft
Simboli :   Temporali  Nebbia  Neve Forte  Precipitazioni Forti  Vento > 20 kt
SIGMETs :   Varie  Temporali  Ghiacco  Turbolenza  Onda orograficha  Ceneri Vulcaniche







- Altitudine del aeroporto : 29 ft


LIRM - Grazzanise Caserta

ULTIMO METAR :
  • 151955Z 21002KT CAVOK 24/24 Q1013

METARs OBSOLETI :
  • 151855Z 23005KT CAVOK 25/24 Q1013 RMK SKC VIS MIN 9999 WIND THR06 22004KT BLU
  • 151755Z 26007KT 9999 FEW070 27/24 Q1013 RMK FEW VIS MIN 9999 WIND THR06 24006KT BLU

TAF TAF LIRM
Valido dal 15 a 21 ore il 16 a 06 ore UTC


152000Z 1521/1606 VRB03KT 9999 FEW050
TEMPO 1601/1606 4000 BR SCT010
Nessun NOTAM noto per questo aeroporto.



MetMap, La meteo Aeronautica in un colpo d'occhio ! - Copyright ORBIFLY Dicembre 2007 - Disclaimer

ORBIFLY MET'MAP TEAM :

Programmazione e sviluppo : Alexandra Zaïnal
Concezione e sviluppo : Baudouin d'Aumeries
Co-Programmazione e sviluppo : Marc-Olivier Méhu
Supporto tecnico e logistico : Manuel Goepfert
Aiuto per la traduzione : Arnaldo La Scala

Contatto : metmap@orbifly.com




FONTI E CREDITI :

   NOAA